首页
METAR-TAF:

METAR-TAF

机场 :

Door County Cherryland Airport

Sturgeon Bay, 威斯康辛州, 美国

纬度: 44-51N, 经度: 087-25W, 海拔: 221米

当前天气观测

该预报发布于4分钟前的20:56 UTC
风速8节,风向西,有时为14节阵风,在西转西南西北之间变化
温度 21°C
湿度 56%
气压 1014 hPa
能見度: 16.1公里
散云层高于9000英尺

METAR: KSUE 232056Z AUTO 27008G14KT 250V310 10SM SCT090 21/12 A2993 RMK AO2 SLP131 T02060122 58004

时间: 16:00 (21:00 UTC)


TAF: 丢失

超过4000个机场的气象观测和天气预报(METAR&TAF报告)。

可查询的气象台以黄色和红色小点在地图上表示。

将鼠标移到小点上方,可查看气象台名称。

然后点击查看天气观测和预报。

如需切换地图:点击带黑十字的绿色按钮放大地图;点击带横线的绿色按钮缩小地图;或者点击绿色箭头查看邻近地区的地图。


METAR-TAF: